Time;durP1;ratioP1;P1;durP2;ratioP2;P2;SDS_P1;SDS_P2;PMS_P1;PMS_P2;Temp;Humidity;BMP_temperature;BMP_pressure;BME280_temperature;BME280_humidity;BME280_pressure;Samples;Min_cycle;Max_cycle;Signal;HPM_P1;HPM_P2
2021/07/14 00:00:52;;;;;;;1.27;1.15;;;;;;;20.57;70.88;98609.75;4941374;29;20419;-86
2021/07/14 00:03:17;;;;;;;2.40;1.70;;;;;;;20.47;69.68;98594.44;4941372;29;20095;-86
2021/07/14 00:05:43;;;;;;;1.88;1.65;;;;;;;20.51;70.66;98602.59;4941572;29;20027;-86
2021/07/14 00:08:11;;;;;;;0.77;0.77;;;;;;;20.45;72.25;98599.78;4958478;29;20038;-86
2021/07/14 00:10:37;;;;;;;0.80;0.80;;;;;;;20.36;72.13;98588.78;4941224;29;20055;-86
2021/07/14 00:23:57;;;;;;;1.45;0.77;;;;;;;20.60;70.88;98616.41;4958009;29;20169;-86
2021/07/14 00:26:23;;;;;;;0.60;0.60;;;;;;;20.58;70.14;98605.69;4941104;29;20038;-85
2021/07/14 00:28:49;;;;;;;1.45;1.05;;;;;;;20.59;69.98;98612.06;4941465;29;20032;-86
2021/07/14 00:31:16;;;;;;;2.53;1.63;;;;;;;20.45;69.74;98582.16;4940830;29;20019;-85
2021/07/14 00:33:43;;;;;;;2.00;1.38;;;;;;;20.50;69.47;98584.22;4940652;29;20051;-86
2021/07/14 00:36:09;;;;;;;1.33;1.27;;;;;;;20.56;70.05;98594.19;4940859;29;20074;-85
2021/07/14 00:38:34;;;;;;;1.98;1.40;;;;;;;20.63;69.56;98604.16;4957809;29;20031;-85
2021/07/14 00:41:00;;;;;;;0.75;0.75;;;;;;;20.63;69.17;98607.72;4940592;29;20031;-86
2021/07/14 00:43:26;;;;;;;4.70;2.25;;;;;;;20.46;68.82;98573.25;4940515;29;20049;-85
2021/07/14 00:45:51;;;;;;;1.50;1.40;;;;;;;20.51;68.93;98582.94;4940531;29;20550;-86
2021/07/14 00:48:25;;;;;;;1.55;1.00;;;;;;;20.77;68.60;98605.22;4940456;29;20059;-86
2021/07/14 00:50:51;;;;;;;0.82;0.82;;;;;;;20.58;68.85;98583.22;4940518;29;20029;-85
2021/07/14 00:53:16;;;;;;;1.17;1.17;;;;;;;20.62;69.58;98605.44;4940186;29;20031;-85
2021/07/14 00:55:42;;;;;;;0.75;0.75;;;;;;;20.43;69.44;98593.16;4940298;29;20134;-85
2021/07/14 00:58:07;;;;;;;1.98;1.63;;;;;;;20.26;69.33;98565.75;4940423;29;20031;-85
2021/07/14 01:00:33;;;;;;;0.93;0.93;;;;;;;20.46;69.29;98606.16;4940634;29;20039;-85
2021/07/14 01:02:59;;;;;;;6.85;1.92;;;;;;;20.13;70.56;98576.69;4940173;29;20089;-85
2021/07/14 01:05:33;;;;;;;1.00;1.00;;;;;;;20.24;70.26;98604.81;4940189;29;20095;-85
2021/07/14 01:08:11;;;;;;;1.33;1.23;;;;;;;20.17;71.11;98602.47;4939926;29;20141;-85
2021/07/14 01:10:56;;;;;;;1.50;1.38;;;;;;;19.99;71.54;98588.88;4940583;29;20114;-85
2021/07/14 01:13:38;;;;;;;2.00;1.00;;;;;;;19.97;71.94;98602.63;4940073;29;20031;-85
2021/07/14 01:16:12;;;;;;;2.40;2.20;;;;;;;20.00;72.47;98612.09;4939943;29;20032;-84
2021/07/14 01:18:54;;;;;;;1.70;1.60;;;;;;;19.96;72.38;98617.16;4940173;29;20118;-84
2021/07/14 01:21:30;;;;;;;2.67;1.23;;;;;;;19.80;73.09;98582.94;4957279;29;20547;-86
2021/07/14 01:24:12;;;;;;;1.58;1.45;;;;;;;19.98;72.72;98609.78;4939624;29;20027;-86
2021/07/14 01:26:47;;;;;;;2.13;1.13;;;;;;;20.06;72.45;98632.50;4939889;29;20490;-84
2021/07/14 01:29:17;;;;;;;1.35;1.13;;;;;;;20.03;72.68;98617.44;4940088;29;20097;-86
2021/07/14 01:31:46;;;;;;;2.70;1.77;;;;;;;20.07;72.14;98611.63;4939949;29;20047;-85
2021/07/14 01:34:13;;;;;;;1.52;1.42;;;;;;;19.98;71.86;98589.38;4939776;29;20086;-87
2021/07/14 01:36:43;;;;;;;1.38;1.35;;;;;;;19.92;72.77;98604.16;4939777;29;20031;-86
2021/07/14 01:39:11;;;;;;;0.90;0.90;;;;;;;19.77;73.21;98583.19;4956793;29;20031;-86
2021/07/14 01:41:41;;;;;;;0.55;0.55;;;;;;;19.98;72.42;98606.97;4939654;29;20038;-85
2021/07/14 01:44:07;;;;;;;1.42;1.33;;;;;;;20.02;72.40;98612.34;4939634;29;20031;-87
2021/07/14 01:46:36;;;;;;;1.75;1.25;;;;;;;19.68;72.44;98556.09;4939882;29;20632;-86
2021/07/14 01:49:09;;;;;;;2.10;1.65;;;;;;;19.90;72.85;98612.28;4939649;29;20086;-85
2021/07/14 01:51:44;;;;;;;0.52;0.52;;;;;;;20.12;72.11;98620.06;4939815;29;20019;-87
2021/07/14 01:54:15;;;;;;;1.17;1.15;;;;;;;20.20;71.44;98615.47;4939937;29;20035;-87
2021/07/14 01:56:40;;;;;;;1.50;1.40;;;;;;;20.07;71.76;98589.94;4939917;29;20114;-86
2021/07/14 01:59:08;;;;;;;1.80;1.63;;;;;;;20.13;71.48;98593.50;4939483;29;20455;-86
2021/07/14 02:01:37;;;;;;;1.33;1.20;;;;;;;19.96;71.49;98581.47;4939259;29;20122;-88
2021/07/14 02:06:50;;;;;;;1.42;1.33;;;;;;;20.19;71.12;98619.56;4956787;29;20483;-86
2021/07/14 02:09:15;;;;;;;1.92;1.83;;;;;;;20.17;71.34;98610.88;4939297;29;20031;-85
2021/07/14 02:11:45;;;;;;;1.50;1.40;;;;;;;20.01;71.60;98591.19;4939311;29;20031;-87
2021/07/14 02:14:14;;;;;;;0.90;0.50;;;;;;;20.01;71.38;98608.00;4939390;29;20510;-88
2021/07/14 02:16:43;;;;;;;1.55;1.48;;;;;;;19.94;71.65;98592.44;4939127;29;20122;-87
2021/07/14 02:19:13;;;;;;;2.10;1.52;;;;;;;20.02;71.56;98610.31;4939346;28;20463;-87
2021/07/14 02:21:39;;;;;;;1.20;1.20;;;;;;;19.94;72.03;98617.66;4939242;29;20031;-89
2021/07/14 02:24:05;;;;;;;1.10;1.08;;;;;;;19.89;72.58;98616.34;4938826;29;20050;-86
2021/07/14 02:26:31;;;;;;;1.63;1.52;;;;;;;19.84;72.30;98605.09;4956122;29;20110;-88
2021/07/14 02:28:56;;;;;;;1.73;1.63;;;;;;;19.76;72.30;98592.84;4938983;29;20086;-87
2021/07/14 02:31:23;;;;;;;1.05;1.05;;;;;;;19.99;72.51;98639.38;4939239;28;20082;-87
2021/07/14 02:33:48;;;;;;;1.20;1.20;;;;;;;19.82;72.08;98602.06;4938523;29;20058;-86
2021/07/14 02:36:15;;;;;;;1.35;1.25;;;;;;;19.97;71.91;98630.69;4938809;29;20023;-87
2021/07/14 02:38:46;;;;;;;1.45;1.38;;;;;;;19.94;72.08;98630.94;4938798;29;20399;-86
2021/07/14 02:41:21;;;;;;;1.55;1.25;;;;;;;19.82;72.04;98613.28;4938608;29;20570;-85
2021/07/14 02:43:51;;;;;;;2.42;1.75;;;;;;;19.89;72.41;98624.03;4939042;29;20027;-85
2021/07/14 02:46:30;;;;;;;2.08;1.55;;;;;;;19.79;72.85;98615.03;4938408;29;20030;-85
2021/07/14 02:48:59;;;;;;;0.85;0.52;;;;;;;19.77;73.06;98628.78;4938885;29;20121;-86
2021/07/14 02:51:29;;;;;;;0.80;0.80;;;;;;;19.81;72.64;98623.72;4938500;29;20019;-87
2021/07/14 02:53:58;;;;;;;1.40;1.35;;;;;;;19.80;73.02;98627.03;4938345;29;20550;-86
2021/07/14 02:56:27;;;;;;;0.75;0.75;;;;;;;19.76;72.95;98626.50;4938675;29;20479;-86
2021/07/14 02:58:57;;;;;;;0.40;0.40;;;;;;;19.84;72.95;98645.13;4955618;29;20067;-88
2021/07/14 03:01:24;;;;;;;1.98;1.88;;;;;;;19.84;72.71;98645.13;4939608;29;20045;-87
2021/07/14 03:03:51;;;;;;;2.00;1.90;;;;;;;19.86;72.90;98639.03;4938645;29;20057;-87
2021/07/14 03:06:17;;;;;;;1.58;1.45;;;;;;;19.91;72.74;98644.66;4938387;29;20086;-86
2021/07/14 03:08:47;;;;;;;1.23;1.13;;;;;;;19.62;72.90;98593.78;4937968;29;20061;-88
2021/07/14 03:11:15;;;;;;;1.80;1.40;;;;;;;19.96;72.95;98654.38;4955491;29;20511;-90
2021/07/14 03:13:43;;;;;;;1.48;1.38;;;;;;;19.90;73.18;98654.34;4938111;29;20479;-86
2021/07/14 03:16:08;;;;;;;0.90;0.90;;;;;;;19.94;73.07;98642.13;4938245;29;20027;-87
2021/07/14 03:18:36;;;;;;;1.05;0.95;;;;;;;19.86;72.74;98628.59;4938138;29;20027;-88
2021/07/14 03:21:02;;;;;;;0.60;0.60;;;;;;;19.67;72.56;98587.44;4938065;29;20498;-86
2021/07/14 03:23:29;;;;;;;1.17;1.10;;;;;;;20.17;72.11;98652.19;4938148;29;20035;-87
2021/07/14 03:25:56;;;;;;;1.20;1.20;;;;;;;20.18;72.14;98662.94;4937816;29;20483;-85
2021/07/14 03:28:22;;;;;;;0.85;0.85;;;;;;;20.16;72.04;98648.63;4937937;29;20122;-85
2021/07/14 03:30:52;;;;;;;1.33;0.95;;;;;;;20.11;71.64;98643.75;4937659;28;20062;-87
2021/07/14 03:33:18;;;;;;;0.50;0.50;;;;;;;20.18;71.45;98637.69;4937550;29;20419;-86
2021/07/14 03:35:44;;;;;;;0.73;0.73;;;;;;;20.33;70.76;98631.88;4937721;29;20038;-87
2021/07/14 03:38:11;;;;;;;2.05;1.58;;;;;;;20.45;70.45;98641.09;4938320;29;20058;-87
2021/07/14 03:40:42;;;;;;;1.67;1.57;;;;;;;20.65;70.21;98649.34;4937579;29;20034;-86
2021/07/14 03:43:10;;;;;;;2.13;1.92;;;;;;;20.97;69.24;98661.94;4937812;29;20029;-86
2021/07/14 03:45:38;;;;;;;1.70;1.60;;;;;;;21.09;68.87;98660.69;4937778;29;20031;-86
2021/07/14 03:48:05;;;;;;;1.25;1.13;;;;;;;21.30;68.44;98674.50;4937611;29;20057;-86
2021/07/14 03:50:31;;;;;;;1.67;1.58;;;;;;;21.42;67.74;98676.03;4937655;29;20067;-87
2021/07/14 03:52:57;;;;;;;2.05;1.38;;;;;;;21.39;67.55;98668.63;4937817;29;20118;-88
2021/07/14 03:55:23;;;;;;;2.00;1.90;;;;;;;21.71;66.85;98683.19;4937712;29;20035;-86
2021/07/14 03:57:48;;;;;;;2.28;2.05;;;;;;;21.51;66.52;98642.81;4938085;29;20082;-86
2021/07/14 04:00:14;;;;;;;1.38;1.27;;;;;;;21.75;65.40;98647.91;4937868;29;20023;-87
2021/07/14 04:02:44;;;;;;;2.13;1.70;;;;;;;21.59;64.89;98636.66;4937825;29;20035;-86
2021/07/14 04:05:11;;;;;;;1.55;1.45;;;;;;;21.83;65.50;98677.03;4954883;29;20112;-87
2021/07/14 04:07:40;;;;;;;3.30;1.43;;;;;;;21.85;65.49;98682.91;4937650;29;20483;-87
2021/07/14 04:10:07;;;;;;;5.35;1.65;;;;;;;21.94;65.62;98677.00;4937462;29;20027;-87
2021/07/14 04:12:32;;;;;;;1.55;0.55;;;;;;;22.15;65.01;98679.53;4937557;29;20533;-88
2021/07/14 04:14:58;;;;;;;3.60;1.83;;;;;;;22.26;63.88;98665.44;4937536;29;20082;-87
2021/07/14 04:17:23;;;;;;;11.45;1.42;;;;;;;22.43;63.28;98656.91;4937551;29;20046;-87
2021/07/14 04:19:48;;;;;;;1.88;1.23;;;;;;;22.80;62.53;98677.00;4938152;29;20019;-87
2021/07/14 04:22:14;;;;;;;2.00;1.77;;;;;;;22.97;61.61;98685.34;4937595;29;20042;-85
2021/07/14 04:24:41;;;;;;;2.47;1.13;;;;;;;23.06;61.59;98677.34;4937340;29;20031;-87
2021/07/14 04:27:08;;;;;;;1.00;1.00;;;;;;;23.37;61.29;98686.63;4937467;29;20038;-87
2021/07/14 04:29:34;;;;;;;2.15;1.88;;;;;;;23.29;60.70;98654.63;4954504;29;20032;-87
2021/07/14 04:32:00;;;;;;;0.63;0.63;;;;;;;23.44;60.44;98655.03;4937195;29;20043;-87
2021/07/14 04:34:26;;;;;;;15.00;0.60;;;;;;;23.79;59.36;98676.81;4937158;29;20093;-84
2021/07/14 04:36:52;;;;;;;1.40;1.15;;;;;;;23.91;58.87;98687.47;4937773;29;20058;-86
2021/07/14 04:39:18;;;;;;;1.17;1.17;;;;;;;23.87;58.71;98677.75;4937399;29;20415;-86
2021/07/14 04:41:44;;;;;;;1.38;1.20;;;;;;;23.90;59.14;98685.94;4936919;29;20059;-85
2021/07/14 04:44:14;;;;;;;0.90;0.90;;;;;;;24.04;59.13;98683.22;4938585;29;20023;-88
2021/07/14 04:46:40;;;;;;;3.58;2.47;;;;;;;24.26;58.47;98688.66;4940661;29;20502;-85
2021/07/14 04:49:05;;;;;;;0.82;0.82;;;;;;;24.69;57.41;98695.06;4940760;29;20067;-85
2021/07/14 04:51:32;;;;;;;2.72;1.60;;;;;;;24.92;56.83;98680.66;4957849;29;20031;-86
2021/07/14 04:53:57;;;;;;;2.55;1.48;;;;;;;25.07;56.30;98658.34;4940717;29;20102;-87
2021/07/14 04:56:23;;;;;;;2.25;1.35;;;;;;;25.60;56.02;98687.59;4940531;29;20039;-87
2021/07/14 04:58:48;;;;;;;1.23;1.13;;;;;;;25.82;54.31;98667.41;4957590;29;20030;-87
2021/07/14 05:01:16;;;;;;;2.10;0.95;;;;;;;26.04;54.05;98671.13;4940369;29;20035;-86
2021/07/14 05:03:45;;;;;;;1.65;1.38;;;;;;;26.33;53.06;98672.91;4940375;29;20027;-87
2021/07/14 05:06:16;;;;;;;1.75;1.65;;;;;;;26.65;51.32;98673.50;4940303;29;20047;-87
2021/07/14 05:08:42;;;;;;;1.05;1.05;;;;;;;27.18;50.42;98669.81;4940643;29;20023;-88
2021/07/14 05:11:08;;;;;;;1.15;0.98;;;;;;;28.01;48.93;98678.31;4940501;29;20097;-87
2021/07/14 05:13:33;;;;;;;1.02;1.02;;;;;;;28.51;47.49;98688.34;4940303;29;20555;-85
2021/07/14 05:15:59;;;;;;;3.47;1.88;;;;;;;29.21;45.74;98699.44;4940190;29;20031;-86
2021/07/14 05:18:24;;;;;;;1.25;1.17;;;;;;;29.06;44.73;98658.22;4940314;29;20026;-87
2021/07/14 05:20:50;;;;;;;5.72;1.60;;;;;;;30.23;43.95;98708.47;4940175;29;20126;-87
2021/07/14 05:23:15;;;;;;;3.22;1.98;;;;;;;31.19;40.90;98708.59;4940135;29;20061;-87
2021/07/14 05:25:41;;;;;;;1.42;1.33;;;;;;;32.02;38.90;98693.72;4940051;29;20028;-87
2021/07/14 05:28:06;;;;;;;1.42;1.05;;;;;;;32.91;37.24;98704.09;4940307;29;20039;-87
2021/07/14 05:30:32;;;;;;;1.00;0.88;;;;;;;34.09;34.95;98696.28;4940215;29;20464;-86
2021/07/14 05:32:58;;;;;;;1.10;1.00;;;;;;;35.22;33.70;98719.19;4939611;29;20047;-87
2021/07/14 05:35:24;;;;;;;1.15;0.88;;;;;;;35.65;33.31;98725.09;4940103;29;20054;-87
2021/07/14 05:37:49;;;;;;;1.08;0.75;;;;;;;35.68;31.53;98706.66;4940284;29;20038;-86
2021/07/14 05:40:15;;;;;;;1.13;1.13;;;;;;;36.12;30.71;98741.41;4939620;29;20147;-86
2021/07/14 05:42:40;;;;;;;0.95;0.95;;;;;;;36.71;31.23;98728.22;4939605;29;20031;-86
2021/07/14 05:45:06;;;;;;;2.42;1.10;;;;;;;37.47;29.11;98692.16;4956815;29;20059;-88
2021/07/14 05:47:32;;;;;;;4.60;1.43;;;;;;;38.94;27.97;98724.94;4939980;29;20027;-87
2021/07/14 05:49:58;;;;;;;1.15;1.08;;;;;;;39.41;26.24;98734.91;4940141;29;20503;-87
2021/07/14 05:52:24;;;;;;;0.82;0.82;;;;;;;40.46;25.14;98734.06;4939961;29;20038;-88
2021/07/14 05:54:49;;;;;;;3.03;1.55;;;;;;;41.48;23.85;98728.31;4939545;29;20039;-88
2021/07/14 05:57:15;;;;;;;0.82;0.82;;;;;;;41.88;23.06;98738.19;4939760;29;20395;-88
2021/07/14 05:59:40;;;;;;;3.97;1.50;;;;;;;42.07;22.37;98731.81;4939550;29;20043;-87
2021/07/14 06:02:06;;;;;;;2.87;1.23;;;;;;;42.31;22.27;98716.91;4940156;29;20069;-84
2021/07/14 06:04:31;;;;;;;0.73;0.73;;;;;;;42.35;22.51;98729.44;4939569;29;20510;-86
2021/07/14 06:06:59;;;;;;;1.27;1.17;;;;;;;42.60;21.50;98729.09;4939457;29;20034;-85
2021/07/14 06:09:24;;;;;;;0.45;0.45;;;;;;;42.62;22.37;98734.97;4939512;29;20023;-85
2021/07/14 06:11:49;;;;;;;0.70;0.60;;;;;;;42.53;21.69;98703.34;4939454;29;20031;-86
2021/07/14 06:14:15;;;;;;;1.07;1.03;;;;;;;43.23;20.79;98728.09;4939639;29;20178;-88
2021/07/14 06:16:41;;;;;;;0.63;0.63;;;;;;;43.06;20.93;98717.94;4940089;29;20034;-88
2021/07/14 06:19:06;;;;;;;0.90;0.85;;;;;;;43.04;21.41;98729.50;4956593;29;20483;-86
2021/07/14 06:21:32;;;;;;;1.13;0.97;;;;;;;43.22;20.00;98730.28;4939490;29;20046;-85
2021/07/14 06:23:57;;;;;;;1.43;0.90;;;;;;;43.03;21.22;98730.91;4956302;29;20027;-86
2021/07/14 06:26:23;;;;;;;0.73;0.73;;;;;;;44.32;19.51;98734.50;4939131;29;20058;-86
2021/07/14 06:28:48;;;;;;;1.27;1.17;;;;;;;44.90;18.64;98735.84;4939457;29;20035;-86
2021/07/14 06:31:13;;;;;;;0.80;0.80;;;;;;;45.50;18.01;98731.25;4938989;29;20117;-87
2021/07/14 06:33:40;;;;;;;1.10;1.00;;;;;;;46.18;18.19;98732.56;4938953;29;20054;-85
2021/07/14 06:36:07;;;;;;;0.50;0.50;;;;;;;46.13;17.25;98715.59;4956095;29;20098;-85
2021/07/14 06:38:33;;;;;;;0.88;0.85;;;;;;;45.99;18.07;98724.72;4938978;29;20122;-87
2021/07/14 06:40:59;;;;;;;6.82;0.80;;;;;;;46.38;18.00;98725.81;4955851;29;20039;-87
2021/07/14 06:43:41;;;;;;;0.67;0.67;;;;;;;46.01;17.56;98707.22;4939271;29;20035;-87
2021/07/14 06:46:09;;;;;;;1.60;1.02;;;;;;;45.68;18.09;98725.97;4939117;29;20031;-87
2021/07/14 06:48:36;;;;;;;3.65;1.30;;;;;;;44.45;18.39;98708.03;4955877;29;20029;-85
2021/07/14 06:51:01;;;;;;;1.75;1.13;;;;;;;44.57;17.89;98719.38;4938676;29;20091;-86
2021/07/14 06:53:27;;;;;;;0.83;0.83;;;;;;;44.43;18.39;98699.22;4955929;29;20035;-87
2021/07/14 06:55:52;;;;;;;0.90;0.90;;;;;;;44.17;18.36;98687.38;4955745;29;20472;-85
2021/07/14 06:58:18;;;;;;;0.77;0.77;;;;;;;44.97;18.81;98708.38;4955793;29;20027;-87
2021/07/14 07:00:44;;;;;;;3.72;1.10;;;;;;;45.31;17.97;98700.72;4938788;29;20042;-86
2021/07/14 07:03:09;;;;;;;2.03;1.27;;;;;;;45.18;18.00;98709.78;4938739;29;20035;-86
2021/07/14 07:05:35;;;;;;;2.90;1.40;;;;;;;45.39;17.52;98703.88;4938495;28;20480;-86
2021/07/14 07:08:00;;;;;;;0.87;0.80;;;;;;;44.98;18.10;98686.50;4937879;29;20031;-87
2021/07/14 07:10:27;;;;;;;0.80;0.80;;;;;;;42.97;19.89;98701.59;4955907;29;20031;-86
2021/07/14 07:12:52;;;;;;;2.80;2.35;;;;;;;41.01;22.98;98711.50;4955483;29;20128;-86
2021/07/14 07:15:18;;;;;;;0.50;0.50;;;;;;;42.10;22.48;98697.81;4955640;29;20444;-88
2021/07/14 07:17:44;;;;;;;0.70;0.70;;;;;;;41.07;21.49;98690.78;4938467;29;20035;-87
2021/07/14 07:20:10;;;;;;;7.05;0.88;;;;;;;40.83;22.34;98687.44;4938220;29;20259;-87
2021/07/14 07:22:36;;;;;;;1.60;1.10;;;;;;;40.94;22.53;98701.03;4938358;29;20027;-88
2021/07/14 07:25:02;;;;;;;0.85;0.57;;;;;;;40.99;22.63;98708.50;4937897;29;20495;-87
2021/07/14 07:27:34;;;;;;;;;;;;;;;40.98;23.22;98704.13;4938428;29;20027;-88
2021/07/14 07:29:59;;;;;;;0.80;0.80;;;;;;;42.51;22.01;98697.44;4938358;29;19993;-85
2021/07/14 07:32:24;;;;;;;0.77;0.57;;;;;;;43.25;20.31;98696.94;4937810;29;20182;-87
2021/07/14 07:34:50;;;;;;;1.70;0.80;;;;;;;44.41;19.39;98680.94;4955298;29;20476;-86
2021/07/14 07:37:15;;;;;;;0.90;0.87;;;;;;;45.43;18.16;98693.78;4937880;29;20042;-85
2021/07/14 07:39:42;;;;;;;3.53;0.90;;;;;;;45.46;18.07;98689.50;4937973;29;20458;-86
2021/07/14 07:42:07;;;;;;;;;;;;;;;44.75;18.76;98690.84;4938504;29;20031;-86
2021/07/14 07:44:33;;;;;;;1.07;0.90;;;;;;;44.32;19.75;98658.75;4937821;29;19985;-85
2021/07/14 07:46:58;;;;;;;2.07;1.37;;;;;;;43.48;21.22;98691.97;4955048;29;20058;-86
2021/07/14 07:49:24;;;;;;;1.13;1.03;;;;;;;42.57;20.82;98666.47;4954882;29;20518;-84
2021/07/14 07:51:49;;;;;;;0.80;0.80;;;;;;;43.43;20.14;98677.28;4937771;29;20491;-86
2021/07/14 07:54:15;;;;;;;2.53;1.50;;;;;;;42.59;20.34;98672.38;4954909;29;20057;-85
2021/07/14 07:56:41;;;;;;;0.37;0.37;;;;;;;43.75;19.95;98680.72;4937707;29;20515;-85
2021/07/14 07:59:06;;;;;;;1.10;1.03;;;;;;;44.36;19.12;98682.97;4954991;29;20031;-86
2021/07/14 08:01:31;;;;;;;1.70;0.77;;;;;;;43.31;19.20;98673.91;4954931;29;20031;-86
2021/07/14 08:03:57;;;;;;;1.57;1.47;;;;;;;41.90;20.15;98673.69;4938007;29;20030;-85
2021/07/14 08:06:22;;;;;;;2.83;1.10;;;;;;;39.99;21.53;98658.47;4937715;29;20046;-85
2021/07/14 08:08:48;;;;;;;0.75;0.75;;;;;;;38.47;25.24;98663.66;4937784;29;20492;-87
2021/07/14 08:11:14;;;;;;;3.35;1.10;;;;;;;37.12;26.82;98638.72;4937795;29;20035;-88
2021/07/14 08:13:39;;;;;;;2.05;1.27;;;;;;;36.30;26.70;98670.75;4937853;29;20027;-88
2021/07/14 08:16:05;;;;;;;1.40;1.30;;;;;;;35.46;27.82;98654.06;4954764;29;20031;-88
2021/07/14 08:18:30;;;;;;;0.90;0.90;;;;;;;35.45;29.90;98661.94;4940448;29;20090;-90
2021/07/14 08:20:56;;;;;;;1.23;1.05;;;;;;;35.42;31.38;98668.94;4941572;29;20031;-89
2021/07/14 08:23:24;;;;;;;1.15;1.05;;;;;;;35.67;29.53;98673.50;4941072;29;20403;-89
2021/07/14 08:25:51;;;;;;;1.15;1.10;;;;;;;35.62;30.82;98668.84;4941387;29;20118;-90
2021/07/14 08:28:17;;;;;;;1.45;1.35;;;;;;;35.10;29.82;98663.69;4941400;29;20510;-88
2021/07/14 08:30:43;;;;;;;0.90;0.90;;;;;;;34.44;30.92;98656.63;4940962;29;20035;-90
2021/07/14 08:33:09;;;;;;;1.30;1.20;;;;;;;34.43;30.61;98643.63;4940893;29;20062;-88
2021/07/14 08:35:34;;;;;;;1.10;1.10;;;;;;;34.21;32.26;98597.59;4941214;29;20051;-90
2021/07/14 08:38:00;;;;;;;1.42;1.20;;;;;;;33.95;31.11;98615.63;4941094;29;20059;-90
2021/07/14 08:40:25;;;;;;;1.60;1.50;;;;;;;33.87;32.11;98641.59;4941180;29;20031;-89
2021/07/14 08:42:58;;;;;;;3.58;1.67;;;;;;;33.63;32.55;98645.44;4941085;29;20074;-90
2021/07/14 08:45:24;;;;;;;0.93;0.93;;;;;;;33.42;32.97;98640.22;4941037;29;20034;-90
2021/07/14 08:47:50;;;;;;;1.92;1.38;;;;;;;33.04;33.32;98602.75;4940891;29;20031;-87
2021/07/14 08:50:19;;;;;;;2.33;1.70;;;;;;;33.09;35.41;98605.34;4940763;29;20031;-89
2021/07/14 08:52:47;;;;;;;1.83;1.63;;;;;;;33.63;36.30;98616.00;4940715;29;20035;-89
2021/07/14 08:55:15;;;;;;;1.25;1.15;;;;;;;33.11;35.96;98611.25;4957952;29;20083;-87
2021/07/14 08:57:42;;;;;;;1.58;0.80;;;;;;;33.07;34.98;98627.34;4940768;29;20024;-88
2021/07/14 09:00:19;;;;;;;1.85;0.38;;;;;;;33.40;36.81;98624.94;4940906;29;20058;-90
2021/07/14 09:02:45;;;;;;;0.80;0.80;;;;;;;33.86;35.32;98617.16;4940552;29;20039;-89
2021/07/14 09:05:12;;;;;;;1.25;1.02;;;;;;;33.79;35.18;98618.03;4940499;29;20027;-90
2021/07/14 09:07:38;;;;;;;2.92;1.77;;;;;;;33.42;35.31;98600.09;4940550;29;20179;-89
2021/07/14 09:10:08;;;;;;;1.48;1.38;;;;;;;33.51;35.22;98582.19;4940691;29;20043;-88
2021/07/14 09:12:45;;;;;;;2.90;1.45;;;;;;;33.88;35.04;98622.25;4940486;29;20039;-91
2021/07/14 09:15:13;;;;;;;1.20;1.10;;;;;;;33.53;32.32;98601.63;4940452;29;20023;-93
2021/07/14 09:17:46;;;;;;;2.60;1.20;;;;;;;33.82;32.63;98631.16;4940758;29;20027;-89
2021/07/14 09:20:21;;;;;;;1.38;1.38;;;;;;;33.83;32.18;98638.41;4940554;29;20035;-88
2021/07/14 09:22:47;;;;;;;1.63;1.52;;;;;;;33.54;31.83;98631.81;4940369;29;20027;-92
2021/07/14 09:25:17;;;;;;;2.42;1.85;;;;;;;33.52;32.64;98638.13;4940360;29;20031;-90
2021/07/14 09:27:58;;;;;;;1.42;1.33;;;;;;;33.60;33.68;98612.22;4940133;29;20027;-90
2021/07/14 09:30:26;;;;;;;0.90;0.90;;;;;;;33.75;32.24;98611.25;4939953;29;20062;-91
2021/07/14 09:32:59;;;;;;;1.40;1.30;;;;;;;33.39;31.72;98575.53;4957277;29;20043;-90
2021/07/14 09:35:31;;;;;;;1.45;1.33;;;;;;;33.16;30.93;98597.22;4940211;29;20028;-87
2021/07/14 09:38:24;;;;;;;1.35;1.08;;;;;;;33.32;29.97;98627.97;4940204;29;20027;-88
2021/07/14 09:40:54;;;;;;;3.13;1.30;;;;;;;33.29;31.80;98614.06;4936519;29;20130;-88
2021/07/14 09:43:27;;;;;;;1.92;1.70;;;;;;;33.35;32.29;98594.50;4940050;29;20042;-90
2021/07/14 09:45:55;;;;;;;2.78;2.15;;;;;;;33.15;31.88;98607.97;4956938;29;20034;-90
2021/07/14 09:48:25;;;;;;;;;;;;;;;33.15;30.33;98613.69;4940482;29;20043;-91
2021/07/14 09:50:57;;;;;;;1.38;1.30;;;;;;;33.20;31.53;98624.13;4939772;29;19914;-87
2021/07/14 09:53:29;;;;;;;1.10;1.05;;;;;;;33.11;32.66;98599.78;4939700;29;20558;-88
2021/07/14 09:55:58;;;;;;;2.45;0.68;;;;;;;32.62;27.16;98562.88;4939893;29;20039;-89
2021/07/14 09:58:30;;;;;;;1.35;1.25;;;;;;;33.27;28.85;98619.66;4956815;29;20042;-91
2021/07/14 10:01:04;;;;;;;1.45;1.35;;;;;;;33.36;29.60;98624.66;4939999;29;20035;-90
2021/07/14 10:03:33;;;;;;;0.75;0.75;;;;;;;33.41;30.78;98612.16;4939720;29;20027;-89
2021/07/14 10:06:03;;;;;;;1.17;0.70;;;;;;;33.16;29.80;98612.31;4939369;29;20027;-87
2021/07/14 10:08:29;;;;;;;1.08;1.08;;;;;;;33.32;30.51;98604.28;4939677;29;20410;-92
2021/07/14 10:11:13;;;;;;;1.55;0.85;;;;;;;33.34;30.88;98590.09;4939508;29;20035;-87
2021/07/14 10:13:40;;;;;;;1.83;1.73;;;;;;;33.01;29.90;98573.22;4939156;29;20038;-89
2021/07/14 10:16:06;;;;;;;1.15;1.15;;;;;;;33.11;29.56;98594.06;4939333;29;20027;-93
2021/07/14 10:18:33;;;;;;;1.48;1.15;;;;;;;33.11;31.34;98594.06;4939452;29;20035;-94
2021/07/14 10:21:01;;;;;;;1.23;1.15;;;;;;;33.09;29.35;98611.06;4939543;29;20143;-92
2021/07/14 10:23:30;;;;;;;0.90;0.80;;;;;;;33.32;29.31;98598.56;4939067;29;20118;-92
2021/07/14 10:25:55;;;;;;;2.30;1.95;;;;;;;33.32;30.66;98581.38;4939030;29;20055;-90
2021/07/14 10:28:22;;;;;;;2.00;1.52;;;;;;;33.40;28.13;98599.16;4939333;29;20027;-87
2021/07/14 10:30:51;;;;;;;1.77;1.17;;;;;;;33.21;27.73;98584.81;4939411;29;20034;-92
2021/07/14 10:33:21;;;;;;;1.17;1.08;;;;;;;32.81;28.08;98560.16;4939016;29;20051;-92
2021/07/14 10:35:51;;;;;;;1.00;1.00;;;;;;;33.13;28.07;98593.47;4939005;29;20042;-92
2021/07/14 10:38:17;;;;;;;3.78;1.75;;;;;;;33.41;28.54;98592.09;4939328;29;20031;-87
2021/07/14 10:40:45;;;;;;;1.58;1.45;;;;;;;33.66;28.52;98575.44;4955200;28;20030;-88
2021/07/14 10:43:13;;;;;;;2.55;1.17;;;;;;;33.65;29.33;98545.25;4938631;29;20494;-86
2021/07/14 10:45:40;;;;;;;1.52;1.42;;;;;;;33.64;28.84;98545.88;4938516;29;20554;-89
2021/07/14 10:48:06;;;;;;;1.45;1.35;;;;;;;33.62;29.49;98560.03;4955909;29;20085;-87
2021/07/14 10:50:31;;;;;;;1.85;1.23;;;;;;;33.63;29.89;98556.59;4938646;29;20023;-89
2021/07/14 10:52:58;;;;;;;0.57;0.57;;;;;;;33.65;26.52;98565.31;4938597;29;20470;-89
2021/07/14 10:55:26;;;;;;;1.53;1.43;;;;;;;33.43;26.98;98532.84;4955719;29;20035;-87
2021/07/14 10:57:53;;;;;;;0.82;0.80;;;;;;;33.80;28.08;98572.94;4938614;29;20019;-89
2021/07/14 11:00:20;;;;;;;1.67;1.38;;;;;;;33.75;28.29;98565.38;4938622;29;20034;-90
2021/07/14 11:02:51;;;;;;;0.40;0.40;;;;;;;33.46;27.44;98542.34;4938537;29;20023;-88
2021/07/14 11:05:44;;;;;;;2.58;1.00;;;;;;;33.77;27.84;98560.53;4938496;29;20174;-88
2021/07/14 11:08:10;;;;;;;1.85;1.35;;;;;;;33.51;27.31;98535.59;4939023;29;20028;-91
2021/07/14 11:10:39;;;;;;;3.40;1.27;;;;;;;33.75;27.44;98551.81;4938723;29;20039;-90
2021/07/14 11:13:24;;;;;;;1.88;1.77;;;;;;;33.75;26.26;98553.91;4938243;29;20030;-88
2021/07/14 11:15:50;;;;;;;4.70;2.35;;;;;;;33.64;28.54;98560.94;4955369;29;20067;-90
2021/07/14 11:18:30;;;;;;;2.67;1.23;;;;;;;33.71;26.63;98557.22;4938051;29;20122;-89
2021/07/14 11:20:57;;;;;;;1.48;1.35;;;;;;;33.55;26.66;98521.56;4938023;29;20089;-88
2021/07/14 11:23:25;;;;;;;1.92;1.73;;;;;;;33.48;26.28;98505.28;4938100;29;20031;-90
2021/07/14 11:25:55;;;;;;;1.08;0.98;;;;;;;33.87;30.62;98526.94;4938092;29;20038;-89
2021/07/14 11:28:21;;;;;;;0.80;0.80;;;;;;;33.90;29.95;98514.25;4938018;29;20108;-88
2021/07/14 11:30:49;;;;;;;3.00;1.25;;;;;;;34.00;28.89;98528.56;4938268;29;20074;-90
2021/07/14 11:33:19;;;;;;;0.50;0.50;;;;;;;33.74;26.11;98507.31;4938032;29;20058;-89
2021/07/14 11:35:53;;;;;;;0.90;0.90;;;;;;;33.55;26.54;98500.75;4938408;29;20080;-90
2021/07/14 11:38:53;;;;;;;2.00;1.75;;;;;;;33.66;28.34;98525.97;4938849;29;20182;-87
2021/07/14 11:41:28;;;;;;;0.98;0.88;;;;;;;33.56;27.42;98514.50;4955480;29;20024;-88
2021/07/14 11:43:56;;;;;;;1.00;1.00;;;;;;;33.67;27.00;98528.22;4938230;29;20039;-87
2021/07/14 11:46:26;;;;;;;5.15;2.53;;;;;;;33.61;26.20;98527.00;4937980;29;20027;-89
2021/07/14 11:49:03;;;;;;;1.00;0.90;;;;;;;33.76;28.68;98518.16;4938133;29;20078;-88
2021/07/14 11:51:33;;;;;;;2.15;1.27;;;;;;;33.67;25.57;98496.72;4938163;29;20027;-88